createdAt,value
2023-03-24T00:00:59.714Z,96896.03
2023-03-24T00:02:01.375Z,96900.00
2023-03-24T00:03:03.277Z,96893.25
2023-03-24T00:04:05.115Z,96894.31
2023-03-24T00:05:08.178Z,96892.72
2023-03-24T00:06:13.775Z,96890.78
2023-03-24T00:07:16.392Z,96890.56
2023-03-24T00:08:17.917Z,96890.28
2023-03-24T00:11:35.397Z,96892.38
2023-03-24T00:12:38.533Z,96893.44
2023-03-24T00:13:41.308Z,96898.13
2023-03-24T00:14:42.923Z,96890.28
2023-03-24T00:15:45.413Z,96894.75
2023-03-24T00:16:47.054Z,96891.94
2023-03-24T00:17:52.598Z,96894.06
2023-03-24T00:18:54.620Z,96895.03
2023-03-24T00:19:56.285Z,96883.53
2023-03-24T00:20:58.344Z,96888.72
2023-03-24T00:22:00.918Z,96888.59
2023-03-24T00:23:04.096Z,96883.84
2023-03-24T00:24:07.972Z,96884.63
2023-03-24T00:25:11.415Z,96888.09
2023-03-24T00:26:16.843Z,96880.38
2023-03-24T00:27:18.749Z,96886.53
2023-03-24T00:28:20.304Z,96882.75
2023-03-24T00:29:21.844Z,96883.25
2023-03-24T00:30:25.103Z,96885.44
2023-03-24T00:31:26.806Z,96892.06
2023-03-24T00:32:30.310Z,96881.16
2023-03-24T00:33:32.977Z,96885.06
2023-03-24T00:34:38.408Z,96879.34
2023-03-24T00:35:40.247Z,96888.47
2023-03-24T00:36:41.805Z,96885.41
2023-03-24T00:37:44.706Z,96880.50
2023-03-24T00:38:48.395Z,96888.09
2023-03-24T00:39:50.325Z,96882.06
2023-03-24T00:40:52.118Z,96881.44
2023-03-24T00:41:55.268Z,96879.59
2023-03-24T00:42:56.891Z,96882.56
2023-03-24T00:44:00.470Z,96880.25
2023-03-24T00:45:03.872Z,96876.97
2023-03-24T00:46:08.551Z,96872.91
2023-03-24T00:47:11.113Z,96876.06
2023-03-24T00:48:20.292Z,96881.53
2023-03-24T00:49:42.733Z,96883.25
2023-03-24T00:50:46.043Z,96881.16
2023-03-24T00:51:47.636Z,96873.59
2023-03-24T00:52:49.476Z,96887.44
2023-03-24T00:53:51.259Z,96879.72
2023-03-24T00:54:59.247Z,96878.00
2023-03-24T00:56:01.032Z,96878.19
2023-03-24T00:57:03.247Z,96875.41
2023-03-24T00:58:04.970Z,96878.75
2023-03-24T00:59:10.022Z,96875.34
2023-03-24T01:00:14.378Z,96864.09
2023-03-24T01:01:16.084Z,96863.81
2023-03-24T01:02:24.782Z,96863.56
2023-03-24T01:03:27.608Z,96861.69
2023-03-24T01:04:30.684Z,96861.75
2023-03-24T01:05:32.459Z,96864.09
2023-03-24T01:06:37.055Z,96857.03
2023-03-24T01:07:42.353Z,96865.25
2023-03-24T01:08:46.995Z,96859.16
2023-03-24T01:09:57.295Z,96863.41
2023-03-24T01:11:01.280Z,96869.25
2023-03-24T01:12:07.060Z,96865.94
2023-03-24T01:13:10.280Z,96868.00
2023-03-24T01:14:12.228Z,96863.59
2023-03-24T01:15:16.786Z,96865.50
2023-03-24T01:16:18.659Z,96868.00
2023-03-24T01:17:22.510Z,96868.16
2023-03-24T01:18:24.278Z,96865.31
2023-03-24T01:19:25.924Z,96873.19
2023-03-24T01:20:32.930Z,96867.53
2023-03-24T01:21:35.450Z,96869.44
2023-03-24T01:22:44.828Z,96857.94
2023-03-24T01:23:47.712Z,96866.25
2023-03-24T01:24:50.365Z,96860.28
2023-03-24T01:25:52.705Z,96861.22
2023-03-24T01:26:54.467Z,96861.38
2023-03-24T01:27:56.349Z,96865.13
2023-03-24T01:28:57.976Z,96856.66
2023-03-24T01:30:01.837Z,96853.03
2023-03-24T01:31:03.535Z,96858.22
2023-03-24T01:32:05.305Z,96851.47
2023-03-24T01:33:07.323Z,96852.38
2023-03-24T01:34:08.882Z,96852.97
2023-03-24T01:35:11.614Z,96852.47
2023-03-24T01:36:13.266Z,96850.91
2023-03-24T01:37:14.872Z,96855.41
2023-03-24T01:38:16.505Z,96853.34
2023-03-24T01:39:18.101Z,96850.81
2023-03-24T01:40:23.265Z,96855.19
2023-03-24T01:41:24.944Z,96858.03
2023-03-24T01:42:28.043Z,96855.78
2023-03-24T01:43:31.694Z,96850.00
2023-03-24T01:44:36.654Z,96856.25
2023-03-24T01:46:20.660Z,96851.97
2023-03-24T01:47:22.269Z,96861.25
2023-03-24T01:48:56.085Z,96856.81
2023-03-24T01:50:00.642Z,96856.16
2023-03-24T01:51:08.220Z,96851.94
2023-03-24T01:52:17.058Z,96853.03
2023-03-24T01:53:18.726Z,96851.47
2023-03-24T01:54:28.449Z,96855.09
2023-03-24T01:55:32.384Z,96860.47
2023-03-24T01:56:38.495Z,96856.22
2023-03-24T01:57:48.097Z,96852.50
2023-03-24T01:58:55.372Z,96860.34
2023-03-24T01:59:59.738Z,96861.25
2023-03-24T02:01:03.083Z,96860.16
2023-03-24T02:02:06.737Z,96861.38
2023-03-24T02:03:14.778Z,96866.22
2023-03-24T02:04:16.535Z,96863.88
2023-03-24T02:05:18.152Z,96857.47
2023-03-24T02:06:20.465Z,96862.25
2023-03-24T02:07:36.922Z,96867.16
2023-03-24T02:08:58.963Z,96858.03
2023-03-24T02:10:08.135Z,96862.53
2023-03-24T02:11:09.915Z,96860.72
2023-03-24T02:12:11.485Z,96864.28
2023-03-24T02:13:13.153Z,96863.03
2023-03-24T02:14:14.858Z,96863.88
2023-03-24T02:15:18.974Z,96866.91
2023-03-24T02:16:38.628Z,96873.84
2023-03-24T02:18:01.981Z,96872.09
2023-03-24T02:19:12.678Z,96870.97
2023-03-24T02:20:46.160Z,96866.75
2023-03-24T02:22:14.193Z,96869.56
2023-03-24T02:23:30.992Z,96863.31
2023-03-24T02:24:55.144Z,96870.97
2023-03-24T02:26:18.795Z,96863.75
2023-03-24T02:27:35.614Z,96863.44
2023-03-24T02:28:43.198Z,96871.44
2023-03-24T02:29:53.544Z,96868.78
2023-03-24T02:31:08.596Z,96865.00
2023-03-24T02:32:29.191Z,96869.75
2023-03-24T02:33:52.577Z,96866.28
2023-03-24T02:35:11.695Z,96859.22
2023-03-24T02:36:50.531Z,96864.41
2023-03-24T02:38:18.162Z,96869.75
2023-03-24T02:40:00.675Z,96873.97
2023-03-24T02:41:14.803Z,96872.72
2023-03-24T02:42:54.099Z,96882.94
2023-03-24T02:44:16.112Z,96876.97
2023-03-24T02:45:41.887Z,96876.97
2023-03-24T02:46:48.471Z,96879.47
2023-03-24T02:47:55.819Z,96878.38
2023-03-24T02:49:16.297Z,96874.56
2023-03-24T02:50:40.199Z,96879.75
2023-03-24T02:52:00.245Z,96877.53
2023-03-24T02:53:32.367Z,96883.75
2023-03-24T02:54:36.937Z,96881.69
2023-03-24T02:55:45.296Z,96879.47
2023-03-24T02:56:56.108Z,96885.25
2023-03-24T02:58:07.789Z,96889.69
2023-03-24T02:59:19.816Z,96889.56
2023-03-24T03:00:43.233Z,96890.09
2023-03-24T03:01:54.248Z,96891.38
2023-03-24T03:03:06.554Z,96887.47
2023-03-24T03:04:19.129Z,96894.84
2023-03-24T03:05:44.502Z,96895.13
2023-03-24T03:06:52.505Z,96892.66
2023-03-24T03:07:58.835Z,96899.56
2023-03-24T03:09:07.646Z,96892.31
2023-03-24T03:10:12.314Z,96894.19
2023-03-24T03:11:16.300Z,96890.09
2023-03-24T03:12:21.397Z,96896.06
2023-03-24T03:13:40.841Z,96891.03
2023-03-24T03:14:49.243Z,96890.44
2023-03-24T03:15:56.284Z,96893.41
2023-03-24T03:17:04.779Z,96894.38
2023-03-24T03:18:11.485Z,96893.25
2023-03-24T03:19:39.710Z,96894.22
2023-03-24T03:20:50.747Z,96887.16
2023-03-24T03:21:53.781Z,96886.06
2023-03-24T03:23:02.267Z,96878.38
2023-03-24T03:24:15.532Z,96880.56
2023-03-24T03:25:23.190Z,96869.44
2023-03-24T03:26:28.661Z,96864.09
2023-03-24T03:27:39.026Z,96866.28
2023-03-24T03:28:49.733Z,96862.50
2023-03-24T03:29:57.359Z,96868.94
2023-03-24T03:31:06.364Z,96870.69
2023-03-24T03:32:14.751Z,96871.13
2023-03-24T03:33:25.994Z,96873.50
2023-03-24T03:34:40.973Z,96864.53
2023-03-24T03:35:48.198Z,96876.00
2023-03-24T03:37:01.753Z,96870.66
2023-03-24T03:38:21.451Z,96873.81
2023-03-24T03:39:29.586Z,96871.44
2023-03-24T03:40:33.871Z,96863.91
2023-03-24T03:41:36.104Z,96864.72
2023-03-24T03:42:38.212Z,96867.22
2023-03-24T03:43:39.864Z,96872.88
2023-03-24T03:44:41.590Z,96868.16
2023-03-24T03:45:43.471Z,96866.44
2023-03-24T03:46:45.325Z,96860.78
2023-03-24T03:47:47.096Z,96866.75
2023-03-24T03:48:48.805Z,96867.22
2023-03-24T03:49:51.066Z,96866.59
2023-03-24T03:51:06.324Z,96866.59
2023-03-24T03:52:14.972Z,96859.22
2023-03-24T03:53:19.221Z,96857.66
2023-03-24T03:54:21.918Z,96867.19
2023-03-24T03:55:23.703Z,96869.38
2023-03-24T03:56:28.889Z,96869.72
2023-03-24T03:57:30.871Z,96873.19
2023-03-24T03:58:32.768Z,96865.50
2023-03-24T03:59:38.617Z,96870.03
2023-03-24T04:00:41.328Z,96871.75
2023-03-24T04:01:42.917Z,96873.50
2023-03-24T04:02:53.345Z,96873.50
2023-03-24T04:04:06.898Z,96865.03
2023-03-24T04:05:47.448Z,96867.38
2023-03-24T04:07:09.555Z,96867.53
2023-03-24T04:08:23.263Z,96866.91
2023-03-24T04:09:55.375Z,96869.44
2023-03-24T04:11:11.983Z,96862.19
2023-03-24T04:12:43.888Z,96870.97
2023-03-24T04:14:14.396Z,96863.75
2023-03-24T04:15:45.505Z,96865.00
2023-03-24T04:17:08.797Z,96871.16
2023-03-24T04:18:19.421Z,96872.41
2023-03-24T04:19:51.978Z,96871.78
2023-03-24T04:21:04.173Z,96874.13
2023-03-24T04:22:26.901Z,96877.28
2023-03-24T04:23:46.480Z,96873.50
2023-03-24T04:25:14.309Z,96873.66
2023-03-24T04:26:26.339Z,96877.59
2023-03-24T04:27:40.039Z,96879.13
2023-03-24T04:28:47.964Z,96873.19
2023-03-24T04:30:02.581Z,96876.63
2023-03-24T04:31:14.945Z,96881.31
2023-03-24T04:32:28.571Z,96886.66
2023-03-24T04:33:45.667Z,96879.13
2023-03-24T04:34:54.385Z,96884.47
2023-03-24T04:36:06.699Z,96888.56
2023-03-24T04:37:14.510Z,96891.56
2023-03-24T04:38:27.857Z,96888.25
2023-03-24T04:39:34.188Z,96899.59
2023-03-24T04:40:41.957Z,96893.78
2023-03-24T04:41:47.439Z,96893.44
2023-03-24T04:42:53.429Z,96890.16
2023-03-24T04:43:57.280Z,96890.31
2023-03-24T04:45:00.155Z,96885.59
2023-03-24T04:46:03.935Z,96896.75
2023-03-24T04:47:07.658Z,96897.03
2023-03-24T04:48:12.753Z,96897.66
2023-03-24T04:49:14.352Z,96894.03
2023-03-24T04:50:30.537Z,96893.41
2023-03-24T04:51:35.789Z,96902.47
2023-03-24T04:52:39.171Z,96898.56
2023-03-24T04:53:40.911Z,96902.34
2023-03-24T04:54:42.913Z,96905.16
2023-03-24T04:55:50.310Z,96909.53
2023-03-24T04:56:59.371Z,96904.81
2023-03-24T04:58:01.012Z,96903.22
2023-03-24T04:59:02.603Z,96907.31
2023-03-24T05:00:07.782Z,96907.97
2023-03-24T05:01:09.469Z,96910.47
2023-03-24T05:02:11.077Z,96912.38
2023-03-24T05:03:16.778Z,96909.56
2023-03-24T05:04:28.238Z,96910.53
2023-03-24T05:05:29.843Z,96910.69
2023-03-24T05:06:31.887Z,96916.97
2023-03-24T05:07:33.753Z,96921.38
2023-03-24T05:08:35.452Z,96919.19
2023-03-24T05:09:37.042Z,96912.13
2023-03-24T05:10:39.336Z,96910.88
2023-03-24T05:11:41.008Z,96916.53
2023-03-24T05:12:42.631Z,96913.69
2023-03-24T05:13:44.564Z,96910.25
2023-03-24T05:14:46.289Z,96916.69
2023-03-24T05:15:47.809Z,96913.09
2023-03-24T05:16:49.840Z,96916.88
2023-03-24T05:17:52.678Z,96919.84
2023-03-24T05:18:54.287Z,96918.13
2023-03-24T05:19:56.015Z,96922.03
2023-03-24T05:20:57.533Z,96921.25
2023-03-24T05:21:59.104Z,96918.13
2023-03-24T05:23:01.653Z,96911.34
2023-03-24T05:24:03.553Z,96919.53
2023-03-24T05:25:06.709Z,96914.81
2023-03-24T05:26:08.286Z,96918.72
2023-03-24T05:27:09.833Z,96915.56
2023-03-24T05:28:11.460Z,96910.84
2023-03-24T05:29:13.057Z,96920.47
2023-03-24T05:30:15.999Z,96912.44
2023-03-24T05:31:17.745Z,96917.31
2023-03-24T05:32:19.337Z,96916.19
2023-03-24T05:33:20.940Z,96924.88
2023-03-24T05:34:22.826Z,96922.81
2023-03-24T05:35:24.974Z,96920.00
2023-03-24T05:36:26.608Z,96927.22
2023-03-24T05:37:28.257Z,96928.81
2023-03-24T05:38:29.893Z,96931.94
2023-03-24T05:39:31.409Z,96927.53
2023-03-24T05:40:33.007Z,96927.53
2023-03-24T05:41:34.582Z,96936.50
2023-03-24T05:42:36.486Z,96936.94
2023-03-24T05:43:38.100Z,96938.53
2023-03-24T05:44:39.725Z,96935.56
2023-03-24T05:45:41.515Z,96938.84
2023-03-24T05:46:43.210Z,96936.34
2023-03-24T05:47:46.099Z,96937.16
2023-03-24T05:48:47.851Z,96938.72
2023-03-24T05:49:50.407Z,96937.63
2023-03-24T05:50:52.791Z,96943.75
2023-03-24T05:51:55.904Z,96947.34
2023-03-24T05:52:57.546Z,96937.31
2023-03-24T05:53:59.080Z,96941.84
2023-03-24T05:55:00.728Z,96934.16
2023-03-24T05:56:03.116Z,96938.69
2023-03-24T05:57:04.780Z,96935.72
2023-03-24T05:58:06.637Z,96935.25
2023-03-24T05:59:08.280Z,96939.34
2023-03-24T06:00:17.943Z,96939.78
2023-03-24T06:01:19.518Z,96931.63
2023-03-24T06:02:21.466Z,96936.97
2023-03-24T06:03:23.325Z,96937.91
2023-03-24T06:04:25.310Z,96944.50
2023-03-24T06:05:27.172Z,96939.47
2023-03-24T06:06:29.103Z,96945.28
2023-03-24T06:07:30.871Z,96934.44
2023-03-24T06:08:34.061Z,96939.16
2023-03-24T06:09:38.893Z,96944.03
2023-03-24T06:10:41.991Z,96944.19
2023-03-24T06:11:44.789Z,96941.06
2023-03-24T06:12:46.539Z,96949.88
2023-03-24T06:13:48.118Z,96944.09
2023-03-24T06:14:49.829Z,96952.38
2023-03-24T06:15:54.625Z,96947.03
2023-03-24T06:16:59.536Z,96945.16
2023-03-24T06:18:01.541Z,96942.63
2023-03-24T06:19:03.292Z,96953.94
2023-03-24T06:20:11.306Z,96948.59
2023-03-24T06:21:13.113Z,96947.81
2023-03-24T06:22:16.846Z,96944.69
2023-03-24T06:23:18.423Z,96952.34
2023-03-24T06:24:20.460Z,96944.97
2023-03-24T06:25:22.123Z,96953.31
2023-03-24T06:26:23.630Z,96943.59
2023-03-24T06:27:30.196Z,96952.38
2023-03-24T06:28:35.037Z,96941.69
2023-03-24T06:29:36.853Z,96947.03
2023-03-24T06:30:38.904Z,96944.22
2023-03-24T06:31:40.424Z,96946.75
2023-03-24T06:32:46.552Z,96942.81
2023-03-24T06:33:48.853Z,96944.25
2023-03-24T06:34:50.739Z,96940.13
2023-03-24T06:35:53.054Z,96939.78
2023-03-24T06:36:55.470Z,96941.81
2023-03-24T06:37:57.041Z,96939.56
2023-03-24T06:38:58.578Z,96933.50
2023-03-24T06:40:00.335Z,96944.94
2023-03-24T06:41:03.703Z,96935.13
2023-03-24T06:42:05.317Z,96941.34
2023-03-24T06:43:06.901Z,96948.28
2023-03-24T06:44:08.490Z,96942.75
2023-03-24T06:45:10.607Z,96948.19
2023-03-24T06:46:12.225Z,96945.59
2023-03-24T06:47:13.761Z,96950.31
2023-03-24T06:48:15.465Z,96949.25
2023-03-24T06:49:17.095Z,96947.81
2023-03-24T06:50:18.804Z,96936.28
2023-03-24T06:51:20.912Z,96946.13
2023-03-24T06:52:22.457Z,96943.53
2023-03-24T06:53:24.073Z,96944.00
2023-03-24T06:54:25.725Z,96941.38
2023-03-24T06:55:27.421Z,96942.28
2023-03-24T06:56:30.573Z,96946.22
2023-03-24T06:57:32.238Z,96940.78
2023-03-24T06:58:34.564Z,96931.63
2023-03-24T06:59:36.083Z,96933.19
2023-03-24T07:00:38.074Z,96933.75
2023-03-24T07:01:40.150Z,96933.00
2023-03-24T07:02:42.942Z,96934.53
2023-03-24T07:03:45.328Z,96939.00
2023-03-24T07:04:47.517Z,96940.31
2023-03-24T07:05:49.253Z,96940.88
2023-03-24T07:07:03.513Z,96930.63
2023-03-24T07:09:18.920Z,96927.59
2023-03-24T07:10:21.985Z,96937.16
2023-03-24T07:11:24.447Z,96929.81
2023-03-24T07:12:26.074Z,96929.91
2023-03-24T07:13:27.655Z,96935.66
2023-03-24T07:14:29.226Z,96932.97
2023-03-24T07:15:30.819Z,96927.59
2023-03-24T07:16:33.564Z,96925.88
2023-03-24T07:17:37.094Z,96933.56
2023-03-24T07:18:40.198Z,96934.94
2023-03-24T07:19:41.856Z,96924.00
2023-03-24T07:20:44.571Z,96925.25
2023-03-24T07:21:50.020Z,96917.09
2023-03-24T07:22:55.361Z,96918.88
2023-03-24T07:23:56.927Z,96926.19
2023-03-24T07:25:02.424Z,96927.59
2023-03-24T07:26:04.181Z,96928.00
2023-03-24T07:27:06.768Z,96915.44
2023-03-24T07:28:08.525Z,96922.88
2023-03-24T07:29:10.896Z,96925.31
2023-03-24T07:30:13.541Z,96922.47
2023-03-24T07:31:15.124Z,96918.88
2023-03-24T07:32:17.722Z,96921.75
2023-03-24T07:33:19.541Z,96922.47
2023-03-24T07:34:21.295Z,96922.53
2023-03-24T07:35:23.046Z,96923.56
2023-03-24T07:36:24.646Z,96918.38
2023-03-24T07:37:26.238Z,96910.75
2023-03-24T07:38:27.975Z,96918.03
2023-03-24T07:39:29.502Z,96911.31
2023-03-24T07:40:31.830Z,96918.41
2023-03-24T07:41:33.353Z,96913.69
2023-03-24T07:42:35.306Z,96910.69
2023-03-24T07:43:36.899Z,96912.56
2023-03-24T07:44:38.480Z,96907.13
2023-03-24T07:45:40.145Z,96909.84
2023-03-24T07:46:41.726Z,96905.22
2023-03-24T07:47:45.442Z,96898.94
2023-03-24T07:48:47.273Z,96901.44
2023-03-24T07:49:48.840Z,96908.06
2023-03-24T07:50:53.104Z,96899.25
2023-03-24T07:51:54.742Z,96904.94
2023-03-24T07:52:59.398Z,96905.63
2023-03-24T07:54:03.614Z,96903.66
2023-03-24T07:55:07.211Z,96906.84
2023-03-24T07:56:09.562Z,96903.31
2023-03-24T07:57:11.435Z,96898.41
2023-03-24T07:58:13.058Z,96902.00
2023-03-24T07:59:14.621Z,96893.84
2023-03-24T08:00:21.143Z,96900.81
2023-03-24T08:01:23.124Z,96898.22
2023-03-24T08:02:24.759Z,96897.59
2023-03-24T08:03:28.360Z,96899.44
2023-03-24T08:04:30.210Z,96889.75
2023-03-24T08:05:31.861Z,96899.38
2023-03-24T08:06:33.535Z,96898.66
2023-03-24T08:07:35.047Z,96898.22
2023-03-24T08:08:37.529Z,96900.16
2023-03-24T08:09:39.913Z,96892.09
2023-03-24T08:10:42.678Z,96900.50
2023-03-24T08:11:44.270Z,96891.06
2023-03-24T08:12:46.261Z,96892.44
2023-03-24T08:13:47.997Z,96891.50
2023-03-24T08:14:49.533Z,96888.94
2023-03-24T08:15:53.213Z,96886.69
2023-03-24T08:16:54.985Z,96888.84
2023-03-24T08:17:57.172Z,96889.78
2023-03-24T08:18:59.303Z,96886.88
2023-03-24T08:20:03.283Z,96882.31
2023-03-24T08:21:06.746Z,96876.88
2023-03-24T08:22:08.303Z,96877.41
2023-03-24T08:23:10.437Z,96879.38
2023-03-24T08:24:12.011Z,96875.56
2023-03-24T08:25:13.590Z,96868.53
2023-03-24T08:26:15.318Z,96874.63
2023-03-24T08:27:17.067Z,96873.84
2023-03-24T08:28:18.843Z,96868.53
2023-03-24T08:29:20.457Z,96863.00
2023-03-24T08:30:26.573Z,96865.81
2023-03-24T08:31:36.489Z,96865.34
2023-03-24T08:32:38.246Z,96866.72
2023-03-24T08:33:40.518Z,96869.44
2023-03-24T08:34:42.045Z,96866.22
2023-03-24T08:35:45.938Z,96864.34
2023-03-24T08:36:47.666Z,96854.06
2023-03-24T08:37:49.250Z,96858.06
2023-03-24T08:38:51.796Z,96864.00
2023-03-24T08:39:58.610Z,96854.75
2023-03-24T08:41:06.775Z,96855.63
2023-03-24T08:42:08.810Z,96850.00
2023-03-24T08:43:14.895Z,96852.78
2023-03-24T08:44:17.288Z,96857.75
2023-03-24T08:45:21.250Z,96851.72
2023-03-24T08:46:23.067Z,96852.63
2023-03-24T08:47:24.808Z,96847.03
2023-03-24T08:48:27.724Z,96841.81
2023-03-24T08:49:29.354Z,96843.78
2023-03-24T08:50:35.131Z,96839.66
2023-03-24T08:51:37.094Z,96838.75
2023-03-24T08:52:38.682Z,96841.56
2023-03-24T08:53:40.366Z,96837.84
2023-03-24T08:54:41.960Z,96840.81
2023-03-24T08:55:44.745Z,96837.75
2023-03-24T08:56:46.271Z,96833.63
2023-03-24T08:57:48.374Z,96835.38
2023-03-24T08:58:51.379Z,96820.91
2023-03-24T08:59:52.959Z,96826.09
2023-03-24T09:00:54.504Z,96825.41
2023-03-24T09:01:56.039Z,96827.06
2023-03-24T09:02:58.580Z,96827.13
2023-03-24T09:04:00.533Z,96815.53
2023-03-24T09:05:02.843Z,96825.66
2023-03-24T09:06:04.614Z,96822.59
2023-03-24T09:07:06.322Z,96821.78
2023-03-24T09:08:08.231Z,96824.16
2023-03-24T09:09:09.834Z,96821.81
2023-03-24T09:10:12.719Z,96817.06
2023-03-24T09:11:19.330Z,96820.13
2023-03-24T09:12:20.889Z,96818.53
2023-03-24T09:13:22.683Z,96817.00
2023-03-24T09:14:24.549Z,96820.16
2023-03-24T09:15:26.365Z,96820.13
2023-03-24T09:16:28.339Z,96820.75
2023-03-24T09:17:29.935Z,96813.59
2023-03-24T09:18:31.690Z,96819.81
2023-03-24T09:19:34.173Z,96811.56
2023-03-24T09:20:35.973Z,96810.50
2023-03-24T09:21:38.508Z,96808.13
2023-03-24T09:22:45.718Z,96810.41
2023-03-24T09:23:47.293Z,96815.94
2023-03-24T09:24:49.380Z,96802.16
2023-03-24T09:25:53.772Z,96810.00
2023-03-24T09:26:55.358Z,96813.16
2023-03-24T09:27:57.535Z,96804.97
2023-03-24T09:28:59.051Z,96800.63
2023-03-24T09:30:01.088Z,96801.50
2023-03-24T09:31:05.566Z,96794.56
2023-03-24T09:32:07.377Z,96796.13
2023-03-24T09:33:09.090Z,96799.25
2023-03-24T09:34:10.896Z,96793.91
2023-03-24T09:35:13.604Z,96792.78
2023-03-24T09:36:15.191Z,96794.22
2023-03-24T09:37:16.770Z,96789.13
2023-03-24T09:38:18.841Z,96787.59
2023-03-24T09:39:20.495Z,96786.94
2023-03-24T09:40:26.416Z,96780.09
2023-03-24T09:41:31.893Z,96780.19
2023-03-24T09:42:41.277Z,96779.06
2023-03-24T09:43:45.464Z,96782.53
2023-03-24T09:44:50.679Z,96780.94
2023-03-24T09:45:57.114Z,96776.72
2023-03-24T09:47:36.439Z,96769.41
2023-03-24T09:48:39.276Z,96781.09
2023-03-24T09:49:42.707Z,96776.81
2023-03-24T09:50:57.729Z,96775.69
2023-03-24T09:52:07.927Z,96771.75
2023-03-24T09:53:37.110Z,96767.44
2023-03-24T09:54:59.026Z,96769.03
2023-03-24T09:56:09.512Z,96765.97
2023-03-24T09:57:21.965Z,96767.00
2023-03-24T09:58:25.851Z,96763.16
2023-03-24T09:59:36.435Z,96762.47
2023-03-24T10:00:38.251Z,96758.56
2023-03-24T10:01:39.949Z,96756.22
2023-03-24T10:02:41.741Z,96763.16
2023-03-24T10:03:45.249Z,96760.00
2023-03-24T10:04:47.912Z,96756.91
2023-03-24T10:06:10.310Z,96753.06
2023-03-24T10:07:44.034Z,96754.69
2023-03-24T10:08:53.143Z,96749.31
2023-03-24T10:09:59.595Z,96744.66
2023-03-24T10:11:19.769Z,96746.59
2023-03-24T10:12:34.857Z,96747.03
2023-03-24T10:13:51.392Z,96742.41
2023-03-24T10:15:37.364Z,96737.41
2023-03-24T10:16:54.925Z,96735.84
2023-03-24T10:18:18.546Z,96740.09
2023-03-24T10:20:00.329Z,96736.97
2023-03-24T10:21:15.961Z,96727.19
2023-03-24T10:22:49.192Z,96729.09
2023-03-24T10:24:37.845Z,96728.75
2023-03-24T10:25:54.406Z,96719.03
2023-03-24T10:26:58.998Z,96723.69
2023-03-24T10:28:10.101Z,96720.59
2023-03-24T10:29:30.052Z,96718.28
2023-03-24T10:30:34.790Z,96709.34
2023-03-24T10:31:38.974Z,96715.22
2023-03-24T10:32:43.022Z,96716.75
2023-03-24T10:33:46.033Z,96707.47
2023-03-24T10:34:54.544Z,96710.59
2023-03-24T10:36:04.305Z,96708.28
2023-03-24T10:37:07.479Z,96709.88
2023-03-24T10:38:21.940Z,96701.31
2023-03-24T10:39:28.658Z,96707.53
2023-03-24T10:40:41.468Z,96699.78
2023-03-24T10:41:44.983Z,96697.41
2023-03-24T10:42:49.848Z,96692.75
2023-03-24T10:44:09.791Z,96691.97
2023-03-24T10:45:29.217Z,96690.81
2023-03-24T10:46:32.200Z,96687.28
2023-03-24T10:47:34.314Z,96681.44
2023-03-24T10:48:36.039Z,96682.22
2023-03-24T10:49:38.775Z,96676.44
2023-03-24T10:50:45.365Z,96679.53
2023-03-24T10:51:50.660Z,96669.78
2023-03-24T10:52:53.357Z,96670.22
2023-03-24T10:54:19.958Z,96666.34
2023-03-24T10:55:24.500Z,96663.97
2023-03-24T10:56:48.379Z,96666.69
2023-03-24T10:57:57.696Z,96661.59
2023-03-24T10:58:59.956Z,96661.25
2023-03-24T11:00:14.791Z,96657.78
2023-03-24T11:01:30.415Z,96658.13
2023-03-24T11:02:33.726Z,96649.22
2023-03-24T11:03:38.093Z,96649.97
2023-03-24T11:04:51.254Z,96651.53
2023-03-24T11:06:02.092Z,96650.78
2023-03-24T11:07:09.607Z,96651.53
2023-03-24T11:08:31.376Z,96641.44
2023-03-24T11:09:43.925Z,96640.66
2023-03-24T11:10:45.612Z,96639.06
2023-03-24T11:11:47.620Z,96632.91
2023-03-24T11:12:55.190Z,96631.78
2023-03-24T11:14:01.431Z,96636.06
2023-03-24T11:15:30.635Z,96629.78
2023-03-24T11:16:36.885Z,96627.78
2023-03-24T11:17:38.711Z,96633.59
2023-03-24T11:19:03.036Z,96621.94
2023-03-24T11:20:17.290Z,96616.84
2023-03-24T11:21:20.610Z,96621.13
2023-03-24T11:22:22.805Z,96619.56
2023-03-24T11:23:32.236Z,96619.63
2023-03-24T11:24:38.220Z,96613.44
2023-03-24T11:25:42.002Z,96607.97
2023-03-24T11:26:52.917Z,96607.16
2023-03-24T11:28:00.970Z,96604.78
2023-03-24T11:29:10.727Z,96602.41
2023-03-24T11:30:14.167Z,96601.59
2023-03-24T11:31:24.668Z,96595.78
2023-03-24T11:32:28.182Z,96593.88
2023-03-24T11:33:34.933Z,96598.47
2023-03-24T11:34:44.483Z,96594.91
2023-03-24T11:35:50.356Z,96591.41
2023-03-24T11:37:02.292Z,96593.69
2023-03-24T11:38:06.658Z,96593.19
2023-03-24T11:39:40.690Z,96585.72
2023-03-24T11:40:54.435Z,96581.00
2023-03-24T11:42:05.867Z,96585.28
2023-03-24T11:43:20.950Z,96584.84
2023-03-24T11:44:24.728Z,96579.34
2023-03-24T11:45:50.883Z,96580.06
2023-03-24T11:46:57.434Z,96582.47
2023-03-24T11:47:59.670Z,96582.56
2023-03-24T11:49:02.357Z,96572.44
2023-03-24T11:50:09.663Z,96574.44
2023-03-24T11:51:15.431Z,96570.53
2023-03-24T11:52:42.023Z,96567.34
2023-03-24T11:53:49.937Z,96560.28
2023-03-24T11:54:51.599Z,96561.84
2023-03-24T11:56:02.279Z,96557.72
2023-03-24T11:57:09.618Z,96555.47
2023-03-24T11:58:34.693Z,96550.03
2023-03-24T11:59:48.586Z,96549.94
2023-03-24T12:00:58.757Z,96548.00
2023-03-24T12:02:25.477Z,96542.13
2023-03-24T12:03:59.350Z,96546.03
2023-03-24T12:05:22.558Z,96538.34
2023-03-24T12:06:43.441Z,96527.47
2023-03-24T12:07:44.895Z,96537.56
2023-03-24T12:09:02.766Z,96533.69
2023-03-24T12:10:34.335Z,96523.53
2023-03-24T12:11:51.720Z,96527.00
2023-03-24T12:13:22.124Z,96534.81
2023-03-24T12:14:44.330Z,96528.25
2023-03-24T12:15:56.654Z,96520.50
2023-03-24T12:17:14.493Z,96512.34
2023-03-24T12:18:24.026Z,96514.31
2023-03-24T12:19:44.852Z,96508.06
2023-03-24T12:20:54.090Z,96513.13
2023-03-24T12:22:10.558Z,96503.25
2023-03-24T12:23:20.350Z,96507.13
2023-03-24T12:24:47.522Z,96505.50
2023-03-24T12:26:07.549Z,96499.28
2023-03-24T12:27:42.424Z,96499.34
2023-03-24T12:29:02.399Z,96500.91
2023-03-24T12:30:31.423Z,96495.75
2023-03-24T12:31:54.280Z,96493.75
2023-03-24T12:33:17.126Z,96495.31
2023-03-24T12:34:55.972Z,96486.78
2023-03-24T12:36:25.133Z,96483.31
2023-03-24T12:37:42.704Z,96479.44
2023-03-24T12:39:02.816Z,96478.63
2023-03-24T12:40:34.009Z,96484.34
2023-03-24T12:42:12.848Z,96481.84
2023-03-24T12:43:40.156Z,96479.88
2023-03-24T12:45:00.590Z,96476.28
2023-03-24T12:46:18.593Z,96475.56
2023-03-24T12:47:37.625Z,96477.03
2023-03-24T12:49:08.676Z,96465.31
2023-03-24T12:50:31.277Z,96468.41
2023-03-24T12:51:51.073Z,96471.59
2023-03-24T12:54:25.784Z,96465.38
2023-03-24T12:56:00.820Z,96459.13
2023-03-24T12:57:07.770Z,96453.69
2023-03-24T12:58:32.579Z,96464.59
2023-03-24T12:59:41.629Z,96450.97
2023-03-24T13:01:07.773Z,96454.03
2023-03-24T13:02:25.430Z,96448.91
2023-03-24T13:03:45.919Z,96447.28
2023-03-24T13:04:49.528Z,96436.78
2023-03-24T13:05:56.715Z,96446.09
2023-03-24T13:07:11.825Z,96439.50
2023-03-24T13:08:22.915Z,96442.22
2023-03-24T13:09:48.858Z,96437.88
2023-03-24T13:10:54.592Z,96432.25
2023-03-24T13:12:07.819Z,96431.38
2023-03-24T13:13:15.268Z,96431.22
2023-03-24T13:14:26.391Z,96424.94
2023-03-24T13:16:06.416Z,96428.34
2023-03-24T13:17:17.886Z,96421.28
2023-03-24T13:18:37.758Z,96420.41
2023-03-24T13:19:41.214Z,96421.50
2023-03-24T13:20:51.681Z,96415.25